sensor_id;sensor_type;location;lat;lon;timestamp;P1;durP1;ratioP1;P2;durP2;ratioP2
3099;SDS011;1560;52.746;13.474;2023-04-24T00:02:02;5.90;;;4.15;;
3099;SDS011;1560;52.746;13.474;2023-04-24T00:04:32;7.10;;;4.70;;
3099;SDS011;1560;52.746;13.474;2023-04-24T00:07:01;7.90;;;4.05;;
3099;SDS011;1560;52.746;13.474;2023-04-24T00:12:08;7.50;;;3.90;;
3099;SDS011;1560;52.746;13.474;2023-04-24T00:14:37;4.95;;;3.98;;
3099;SDS011;1560;52.746;13.474;2023-04-24T00:17:06;5.42;;;3.85;;
3099;SDS011;1560;52.746;13.474;2023-04-24T00:19:35;5.45;;;4.50;;
3099;SDS011;1560;52.746;13.474;2023-04-24T00:22:04;6.75;;;4.83;;
3099;SDS011;1560;52.746;13.474;2023-04-24T00:24:33;4.80;;;3.87;;
3099;SDS011;1560;52.746;13.474;2023-04-24T00:27:02;4.85;;;3.72;;
3099;SDS011;1560;52.746;13.474;2023-04-24T00:29:31;4.72;;;3.60;;
3099;SDS011;1560;52.746;13.474;2023-04-24T00:34:37;5.00;;;3.55;;
3099;SDS011;1560;52.746;13.474;2023-04-24T00:37:06;4.97;;;3.85;;
3099;SDS011;1560;52.746;13.474;2023-04-24T00:39:35;5.53;;;4.35;;
3099;SDS011;1560;52.746;13.474;2023-04-24T00:42:04;5.33;;;3.75;;
3099;SDS011;1560;52.746;13.474;2023-04-24T00:44:33;5.35;;;4.12;;
3099;SDS011;1560;52.746;13.474;2023-04-24T00:47:03;5.20;;;4.37;;
3099;SDS011;1560;52.746;13.474;2023-04-24T00:49:32;5.55;;;3.98;;
3099;SDS011;1560;52.746;13.474;2023-04-24T00:52:01;5.60;;;3.75;;
3099;SDS011;1560;52.746;13.474;2023-04-24T00:57:09;6.25;;;4.37;;
3099;SDS011;1560;52.746;13.474;2023-04-24T01:02:18;7.08;;;4.15;;
3099;SDS011;1560;52.746;13.474;2023-04-24T01:04:47;5.65;;;4.53;;
3099;SDS011;1560;52.746;13.474;2023-04-24T01:07:18;6.90;;;4.50;;
3099;SDS011;1560;52.746;13.474;2023-04-24T01:09:48;4.95;;;4.17;;
3099;SDS011;1560;52.746;13.474;2023-04-24T01:12:18;5.03;;;4.53;;
3099;SDS011;1560;52.746;13.474;2023-04-24T01:14:47;4.85;;;4.30;;
3099;SDS011;1560;52.746;13.474;2023-04-24T01:17:16;7.35;;;5.70;;
3099;SDS011;1560;52.746;13.474;2023-04-24T01:19:46;4.60;;;3.90;;
3099;SDS011;1560;52.746;13.474;2023-04-24T01:22:14;8.10;;;4.75;;
3099;SDS011;1560;52.746;13.474;2023-04-24T01:24:43;5.75;;;4.17;;
3099;SDS011;1560;52.746;13.474;2023-04-24T01:27:12;5.12;;;3.92;;
3099;SDS011;1560;52.746;13.474;2023-04-24T01:29:42;6.20;;;4.67;;
3099;SDS011;1560;52.746;13.474;2023-04-24T01:34:48;7.70;;;4.70;;
3099;SDS011;1560;52.746;13.474;2023-04-24T01:37:18;7.55;;;4.90;;
3099;SDS011;1560;52.746;13.474;2023-04-24T01:42:25;8.40;;;5.92;;
3099;SDS011;1560;52.746;13.474;2023-04-24T01:44:54;7.55;;;5.95;;
3099;SDS011;1560;52.746;13.474;2023-04-24T01:47:23;8.68;;;6.45;;
3099;SDS011;1560;52.746;13.474;2023-04-24T01:49:53;7.55;;;5.30;;
3099;SDS011;1560;52.746;13.474;2023-04-24T01:52:22;9.68;;;6.35;;
3099;SDS011;1560;52.746;13.474;2023-04-24T01:54:51;8.95;;;6.03;;
3099;SDS011;1560;52.746;13.474;2023-04-24T02:00:00;8.68;;;6.45;;
3099;SDS011;1560;52.746;13.474;2023-04-24T02:02:30;8.45;;;7.10;;
3099;SDS011;1560;52.746;13.474;2023-04-24T02:04:59;7.55;;;5.80;;
3099;SDS011;1560;52.746;13.474;2023-04-24T02:07:29;8.30;;;5.70;;
3099;SDS011;1560;52.746;13.474;2023-04-24T02:09:59;8.98;;;6.60;;
3099;SDS011;1560;52.746;13.474;2023-04-24T02:15:09;10.08;;;6.40;;
3099;SDS011;1560;52.746;13.474;2023-04-24T02:17:38;7.42;;;6.62;;
3099;SDS011;1560;52.746;13.474;2023-04-24T02:20:07;10.85;;;7.60;;
3099;SDS011;1560;52.746;13.474;2023-04-24T02:22:37;9.85;;;8.65;;
3099;SDS011;1560;52.746;13.474;2023-04-24T02:25:06;8.43;;;6.10;;
3099;SDS011;1560;52.746;13.474;2023-04-24T02:27:36;8.60;;;6.85;;
3099;SDS011;1560;52.746;13.474;2023-04-24T02:32:42;9.13;;;6.47;;
3099;SDS011;1560;52.746;13.474;2023-04-24T02:35:11;8.37;;;6.90;;
3099;SDS011;1560;52.746;13.474;2023-04-24T02:40:18;9.13;;;5.90;;
3099;SDS011;1560;52.746;13.474;2023-04-24T02:42:47;11.05;;;7.53;;
3099;SDS011;1560;52.746;13.474;2023-04-24T02:45:16;8.30;;;6.50;;
3099;SDS011;1560;52.746;13.474;2023-04-24T02:47:45;10.20;;;7.73;;
3099;SDS011;1560;52.746;13.474;2023-04-24T02:50:24;8.38;;;6.65;;
3099;SDS011;1560;52.746;13.474;2023-04-24T02:52:52;9.83;;;7.30;;
3099;SDS011;1560;52.746;13.474;2023-04-24T02:55:21;8.35;;;6.58;;
3099;SDS011;1560;52.746;13.474;2023-04-24T02:57:50;10.40;;;7.10;;
3099;SDS011;1560;52.746;13.474;2023-04-24T03:02:57;9.00;;;6.40;;
3099;SDS011;1560;52.746;13.474;2023-04-24T03:05:26;8.15;;;6.80;;
3099;SDS011;1560;52.746;13.474;2023-04-24T03:07:54;9.10;;;6.50;;
3099;SDS011;1560;52.746;13.474;2023-04-24T03:13:01;9.38;;;6.53;;
3099;SDS011;1560;52.746;13.474;2023-04-24T03:15:29;9.20;;;6.77;;
3099;SDS011;1560;52.746;13.474;2023-04-24T03:20:36;10.10;;;7.13;;
3099;SDS011;1560;52.746;13.474;2023-04-24T03:23:04;11.87;;;8.57;;
3099;SDS011;1560;52.746;13.474;2023-04-24T03:25:33;13.47;;;8.97;;
3099;SDS011;1560;52.746;13.474;2023-04-24T03:28:02;11.48;;;7.70;;
3099;SDS011;1560;52.746;13.474;2023-04-24T03:30:31;12.73;;;6.87;;
3099;SDS011;1560;52.746;13.474;2023-04-24T03:32:59;14.30;;;7.10;;
3099;SDS011;1560;52.746;13.474;2023-04-24T03:35:28;11.37;;;7.80;;
3099;SDS011;1560;52.746;13.474;2023-04-24T03:37:56;10.70;;;7.30;;
3099;SDS011;1560;52.746;13.474;2023-04-24T03:40:25;11.10;;;7.33;;
3099;SDS011;1560;52.746;13.474;2023-04-24T03:42:55;8.77;;;6.10;;
3099;SDS011;1560;52.746;13.474;2023-04-24T03:48:00;9.83;;;7.23;;
3099;SDS011;1560;52.746;13.474;2023-04-24T03:50:37;10.47;;;7.77;;
3099;SDS011;1560;52.746;13.474;2023-04-24T03:53:06;11.67;;;8.20;;
3099;SDS011;1560;52.746;13.474;2023-04-24T03:55:34;11.00;;;7.27;;
3099;SDS011;1560;52.746;13.474;2023-04-24T03:58:03;9.40;;;8.00;;
3099;SDS011;1560;52.746;13.474;2023-04-24T04:00:32;11.20;;;7.60;;
3099;SDS011;1560;52.746;13.474;2023-04-24T04:03:00;11.00;;;7.73;;
3099;SDS011;1560;52.746;13.474;2023-04-24T04:05:29;10.60;;;7.97;;
3099;SDS011;1560;52.746;13.474;2023-04-24T04:07:58;9.67;;;7.47;;
3099;SDS011;1560;52.746;13.474;2023-04-24T04:13:05;9.93;;;7.62;;
3099;SDS011;1560;52.746;13.474;2023-04-24T04:15:33;8.90;;;7.23;;
3099;SDS011;1560;52.746;13.474;2023-04-24T04:18:02;9.77;;;7.60;;
3099;SDS011;1560;52.746;13.474;2023-04-24T04:20:30;10.40;;;7.73;;
3099;SDS011;1560;52.746;13.474;2023-04-24T04:25:36;11.30;;;7.90;;
3099;SDS011;1560;52.746;13.474;2023-04-24T04:28:05;10.23;;;7.35;;
3099;SDS011;1560;52.746;13.474;2023-04-24T04:30:34;12.50;;;8.30;;
3099;SDS011;1560;52.746;13.474;2023-04-24T04:33:04;11.70;;;8.50;;
3099;SDS011;1560;52.746;13.474;2023-04-24T04:35:34;9.60;;;7.03;;
3099;SDS011;1560;52.746;13.474;2023-04-24T04:40:40;9.20;;;7.50;;
3099;SDS011;1560;52.746;13.474;2023-04-24T04:43:09;8.07;;;7.10;;
3099;SDS011;1560;52.746;13.474;2023-04-24T04:45:39;9.70;;;7.47;;
3099;SDS011;1560;52.746;13.474;2023-04-24T04:48:09;9.07;;;7.93;;
3099;SDS011;1560;52.746;13.474;2023-04-24T04:50:40;9.60;;;7.40;;
3099;SDS011;1560;52.746;13.474;2023-04-24T04:53:19;9.00;;;7.85;;
3099;SDS011;1560;52.746;13.474;2023-04-24T04:55:47;12.03;;;8.77;;
3099;SDS011;1560;52.746;13.474;2023-04-24T04:58:16;9.07;;;7.30;;
3099;SDS011;1560;52.746;13.474;2023-04-24T05:03:22;9.63;;;7.60;;
3099;SDS011;1560;52.746;13.474;2023-04-24T05:05:51;9.93;;;7.17;;
3099;SDS011;1560;52.746;13.474;2023-04-24T05:08:27;9.40;;;7.57;;
3099;SDS011;1560;52.746;13.474;2023-04-24T05:11:07;7.87;;;7.07;;
3099;SDS011;1560;52.746;13.474;2023-04-24T05:13:35;9.77;;;8.10;;
3099;SDS011;1560;52.746;13.474;2023-04-24T05:16:04;12.37;;;7.62;;
3099;SDS011;1560;52.746;13.474;2023-04-24T05:18:33;8.07;;;6.63;;
3099;SDS011;1560;52.746;13.474;2023-04-24T05:21:02;8.70;;;6.97;;
3099;SDS011;1560;52.746;13.474;2023-04-24T05:23:30;11.33;;;7.57;;
3099;SDS011;1560;52.746;13.474;2023-04-24T05:25:59;9.43;;;6.97;;
3099;SDS011;1560;52.746;13.474;2023-04-24T05:28:28;10.00;;;7.70;;
3099;SDS011;1560;52.746;13.474;2023-04-24T05:30:57;8.70;;;7.13;;
3099;SDS011;1560;52.746;13.474;2023-04-24T05:33:27;11.90;;;7.40;;
3099;SDS011;1560;52.746;13.474;2023-04-24T05:35:56;13.50;;;7.90;;
3099;SDS011;1560;52.746;13.474;2023-04-24T05:38:24;9.57;;;6.97;;
3099;SDS011;1560;52.746;13.474;2023-04-24T05:40:53;9.73;;;6.87;;
3099;SDS011;1560;52.746;13.474;2023-04-24T05:43:22;8.03;;;6.67;;
3099;SDS011;1560;52.746;13.474;2023-04-24T05:45:51;6.50;;;5.73;;
3099;SDS011;1560;52.746;13.474;2023-04-24T05:48:20;9.30;;;6.77;;
3099;SDS011;1560;52.746;13.474;2023-04-24T05:53:26;8.70;;;6.28;;
3099;SDS011;1560;52.746;13.474;2023-04-24T05:55:55;7.93;;;6.47;;
3099;SDS011;1560;52.746;13.474;2023-04-24T05:58:24;7.40;;;6.50;;
3099;SDS011;1560;52.746;13.474;2023-04-24T06:00:52;12.70;;;7.13;;
3099;SDS011;1560;52.746;13.474;2023-04-24T06:03:21;7.93;;;5.80;;
3099;SDS011;1560;52.746;13.474;2023-04-24T06:05:50;7.33;;;5.97;;
3099;SDS011;1560;52.746;13.474;2023-04-24T06:08:18;10.27;;;6.13;;
3099;SDS011;1560;52.746;13.474;2023-04-24T06:13:26;10.30;;;5.57;;
3099;SDS011;1560;52.746;13.474;2023-04-24T06:15:55;6.70;;;5.30;;
3099;SDS011;1560;52.746;13.474;2023-04-24T06:18:23;5.20;;;4.63;;
3099;SDS011;1560;52.746;13.474;2023-04-24T06:20:52;5.70;;;4.33;;
3099;SDS011;1560;52.746;13.474;2023-04-24T06:23:22;5.97;;;4.63;;
3099;SDS011;1560;52.746;13.474;2023-04-24T06:25:50;6.50;;;4.60;;
3099;SDS011;1560;52.746;13.474;2023-04-24T06:30:57;4.63;;;3.90;;
3099;SDS011;1560;52.746;13.474;2023-04-24T06:33:25;5.00;;;4.07;;
3099;SDS011;1560;52.746;13.474;2023-04-24T06:35:54;4.47;;;3.30;;
3099;SDS011;1560;52.746;13.474;2023-04-24T06:38:23;5.70;;;3.90;;
3099;SDS011;1560;52.746;13.474;2023-04-24T06:40:52;5.80;;;4.10;;
3099;SDS011;1560;52.746;13.474;2023-04-24T06:43:21;5.90;;;4.00;;
3099;SDS011;1560;52.746;13.474;2023-04-24T06:48:27;4.73;;;3.47;;
3099;SDS011;1560;52.746;13.474;2023-04-24T06:50:55;5.13;;;4.10;;
3099;SDS011;1560;52.746;13.474;2023-04-24T06:53:24;4.60;;;3.80;;
3099;SDS011;1560;52.746;13.474;2023-04-24T06:55:53;4.10;;;3.07;;
3099;SDS011;1560;52.746;13.474;2023-04-24T06:58:23;3.40;;;2.87;;
3099;SDS011;1560;52.746;13.474;2023-04-24T07:00:52;3.83;;;2.83;;
3099;SDS011;1560;52.746;13.474;2023-04-24T07:03:21;3.33;;;2.67;;
3099;SDS011;1560;52.746;13.474;2023-04-24T07:05:49;4.90;;;3.20;;
3099;SDS011;1560;52.746;13.474;2023-04-24T07:08:28;4.23;;;2.60;;
3099;SDS011;1560;52.746;13.474;2023-04-24T07:10:57;4.43;;;3.10;;
3099;SDS011;1560;52.746;13.474;2023-04-24T07:13:26;4.20;;;2.67;;
3099;SDS011;1560;52.746;13.474;2023-04-24T07:15:55;3.00;;;2.10;;
3099;SDS011;1560;52.746;13.474;2023-04-24T07:18:24;3.43;;;2.50;;
3099;SDS011;1560;52.746;13.474;2023-04-24T07:20:53;7.43;;;2.20;;
3099;SDS011;1560;52.746;13.474;2023-04-24T07:23:32;2.57;;;1.70;;
3099;SDS011;1560;52.746;13.474;2023-04-24T07:26:00;4.00;;;1.83;;
3099;SDS011;1560;52.746;13.474;2023-04-24T07:28:29;2.70;;;1.67;;
3099;SDS011;1560;52.746;13.474;2023-04-24T07:30:58;3.00;;;2.00;;
3099;SDS011;1560;52.746;13.474;2023-04-24T07:33:26;3.33;;;2.00;;
3099;SDS011;1560;52.746;13.474;2023-04-24T07:35:55;3.87;;;2.33;;
3099;SDS011;1560;52.746;13.474;2023-04-24T07:38:24;3.50;;;1.87;;
3099;SDS011;1560;52.746;13.474;2023-04-24T07:40:52;2.40;;;2.13;;
3099;SDS011;1560;52.746;13.474;2023-04-24T07:43:21;2.37;;;1.97;;
3099;SDS011;1560;52.746;13.474;2023-04-24T07:45:50;3.50;;;1.97;;
3099;SDS011;1560;52.746;13.474;2023-04-24T07:51:10;2.37;;;1.97;;
3099;SDS011;1560;52.746;13.474;2023-04-24T07:53:39;3.20;;;1.47;;
3099;SDS011;1560;52.746;13.474;2023-04-24T07:56:08;2.30;;;1.67;;
3099;SDS011;1560;52.746;13.474;2023-04-24T07:58:36;2.10;;;1.43;;
3099;SDS011;1560;52.746;13.474;2023-04-24T08:01:06;2.60;;;1.70;;
3099;SDS011;1560;52.746;13.474;2023-04-24T08:03:34;1.80;;;1.30;;
3099;SDS011;1560;52.746;13.474;2023-04-24T08:08:41;2.43;;;1.37;;
3099;SDS011;1560;52.746;13.474;2023-04-24T08:11:10;5.70;;;2.73;;
3099;SDS011;1560;52.746;13.474;2023-04-24T08:13:39;2.27;;;1.20;;
3099;SDS011;1560;52.746;13.474;2023-04-24T08:16:07;2.00;;;1.10;;
3099;SDS011;1560;52.746;13.474;2023-04-24T08:18:36;1.93;;;1.27;;
3099;SDS011;1560;52.746;13.474;2023-04-24T08:23:45;2.03;;;0.93;;
3099;SDS011;1560;52.746;13.474;2023-04-24T08:28:51;1.57;;;0.77;;
3099;SDS011;1560;52.746;13.474;2023-04-24T08:31:20;1.77;;;1.00;;
3099;SDS011;1560;52.746;13.474;2023-04-24T08:33:51;6.20;;;1.00;;
3099;SDS011;1560;52.746;13.474;2023-04-24T08:36:19;2.30;;;1.10;;
3099;SDS011;1560;52.746;13.474;2023-04-24T08:38:48;3.50;;;1.30;;
3099;SDS011;1560;52.746;13.474;2023-04-24T08:41:19;3.20;;;1.23;;
3099;SDS011;1560;52.746;13.474;2023-04-24T08:43:50;1.60;;;0.83;;
3099;SDS011;1560;52.746;13.474;2023-04-24T08:46:21;2.40;;;1.23;;
3099;SDS011;1560;52.746;13.474;2023-04-24T08:51:39;2.73;;;1.10;;
3099;SDS011;1560;52.746;13.474;2023-04-24T08:54:08;2.60;;;1.33;;
3099;SDS011;1560;52.746;13.474;2023-04-24T08:56:37;2.20;;;1.17;;
3099;SDS011;1560;52.746;13.474;2023-04-24T08:59:07;1.50;;;0.97;;
3099;SDS011;1560;52.746;13.474;2023-04-24T09:01:40;1.80;;;1.13;;
3099;SDS011;1560;52.746;13.474;2023-04-24T09:04:10;1.80;;;0.90;;
3099;SDS011;1560;52.746;13.474;2023-04-24T09:06:40;1.70;;;0.90;;
3099;SDS011;1560;52.746;13.474;2023-04-24T09:09:09;4.80;;;1.10;;
3099;SDS011;1560;52.746;13.474;2023-04-24T09:11:40;1.67;;;0.80;;
3099;SDS011;1560;52.746;13.474;2023-04-24T09:14:09;2.10;;;0.80;;
3099;SDS011;1560;52.746;13.474;2023-04-24T09:16:38;2.73;;;0.80;;
3099;SDS011;1560;52.746;13.474;2023-04-24T09:19:07;1.77;;;0.80;;
3099;SDS011;1560;52.746;13.474;2023-04-24T09:21:35;1.63;;;0.77;;
3099;SDS011;1560;52.746;13.474;2023-04-24T09:24:14;1.70;;;0.80;;
3099;SDS011;1560;52.746;13.474;2023-04-24T09:26:44;2.57;;;1.10;;
3099;SDS011;1560;52.746;13.474;2023-04-24T09:29:14;2.23;;;1.20;;
3099;SDS011;1560;52.746;13.474;2023-04-24T09:31:44;1.80;;;1.00;;
3099;SDS011;1560;52.746;13.474;2023-04-24T09:34:13;1.87;;;1.00;;
3099;SDS011;1560;52.746;13.474;2023-04-24T09:36:42;3.30;;;1.27;;
3099;SDS011;1560;52.746;13.474;2023-04-24T09:39:12;2.03;;;1.10;;
3099;SDS011;1560;52.746;13.474;2023-04-24T09:41:44;2.87;;;0.87;;
3099;SDS011;1560;52.746;13.474;2023-04-24T09:44:14;2.93;;;1.00;;
3099;SDS011;1560;52.746;13.474;2023-04-24T09:49:23;1.60;;;0.90;;
3099;SDS011;1560;52.746;13.474;2023-04-24T09:51:53;3.50;;;1.20;;
3099;SDS011;1560;52.746;13.474;2023-04-24T09:54:30;1.70;;;0.80;;
3099;SDS011;1560;52.746;13.474;2023-04-24T09:56:59;2.03;;;0.90;;
3099;SDS011;1560;52.746;13.474;2023-04-24T09:59:28;1.67;;;1.00;;
3099;SDS011;1560;52.746;13.474;2023-04-24T10:01:57;1.73;;;0.70;;
3099;SDS011;1560;52.746;13.474;2023-04-24T10:04:28;2.20;;;1.20;;
3099;SDS011;1560;52.746;13.474;2023-04-24T10:07:07;1.50;;;1.00;;
3099;SDS011;1560;52.746;13.474;2023-04-24T10:09:36;1.77;;;1.00;;
3099;SDS011;1560;52.746;13.474;2023-04-24T10:12:05;1.80;;;1.10;;
3099;SDS011;1560;52.746;13.474;2023-04-24T10:14:34;1.70;;;1.30;;
3099;SDS011;1560;52.746;13.474;2023-04-24T10:19:40;1.50;;;0.80;;
3099;SDS011;1560;52.746;13.474;2023-04-24T10:22:10;3.10;;;1.03;;
3099;SDS011;1560;52.746;13.474;2023-04-24T10:24:39;3.20;;;1.07;;
3099;SDS011;1560;52.746;13.474;2023-04-24T10:27:08;2.00;;;1.10;;
3099;SDS011;1560;52.746;13.474;2023-04-24T10:29:37;3.70;;;1.20;;
3099;SDS011;1560;52.746;13.474;2023-04-24T10:32:07;5.00;;;1.40;;
3099;SDS011;1560;52.746;13.474;2023-04-24T10:34:36;3.73;;;1.20;;
3099;SDS011;1560;52.746;13.474;2023-04-24T10:37:04;2.53;;;1.13;;
3099;SDS011;1560;52.746;13.474;2023-04-24T10:39:33;3.10;;;1.33;;
3099;SDS011;1560;52.746;13.474;2023-04-24T10:42:11;2.17;;;1.30;;
3099;SDS011;1560;52.746;13.474;2023-04-24T10:44:42;1.97;;;1.27;;
3099;SDS011;1560;52.746;13.474;2023-04-24T10:47:13;5.03;;;1.50;;
3099;SDS011;1560;52.746;13.474;2023-04-24T10:49:42;2.30;;;1.53;;
3099;SDS011;1560;52.746;13.474;2023-04-24T10:52:11;2.50;;;1.50;;
3099;SDS011;1560;52.746;13.474;2023-04-24T10:54:44;1.70;;;1.13;;
3099;SDS011;1560;52.746;13.474;2023-04-24T10:57:25;2.10;;;1.30;;
3099;SDS011;1560;52.746;13.474;2023-04-24T11:00:16;2.80;;;1.20;;
3099;SDS011;1560;52.746;13.474;2023-04-24T11:02:59;2.77;;;1.50;;
3099;SDS011;1560;52.746;13.474;2023-04-24T11:11:02;2.73;;;1.37;;
3099;SDS011;1560;52.746;13.474;2023-04-24T11:16:43;5.47;;;1.57;;
3099;SDS011;1560;52.746;13.474;2023-04-24T11:21:58;1.80;;;1.20;;
3099;SDS011;1560;52.746;13.474;2023-04-24T11:24:29;2.17;;;1.40;;
3099;SDS011;1560;52.746;13.474;2023-04-24T11:27:07;2.27;;;1.50;;
3099;SDS011;1560;52.746;13.474;2023-04-24T11:29:44;2.47;;;0.90;;
3099;SDS011;1560;52.746;13.474;2023-04-24T11:34:53;1.73;;;1.30;;
3099;SDS011;1560;52.746;13.474;2023-04-24T11:37:23;2.50;;;1.37;;
3099;SDS011;1560;52.746;13.474;2023-04-24T11:39:54;2.20;;;1.60;;
3099;SDS011;1560;52.746;13.474;2023-04-24T11:45:08;1.97;;;1.30;;
3099;SDS011;1560;52.746;13.474;2023-04-24T11:47:38;1.97;;;1.20;;
3099;SDS011;1560;52.746;13.474;2023-04-24T11:50:08;2.00;;;1.20;;
3099;SDS011;1560;52.746;13.474;2023-04-24T11:52:40;2.37;;;0.93;;
3099;SDS011;1560;52.746;13.474;2023-04-24T11:55:22;2.97;;;1.40;;
3099;SDS011;1560;52.746;13.474;2023-04-24T11:57:53;4.30;;;1.30;;
3099;SDS011;1560;52.746;13.474;2023-04-24T12:00:24;2.90;;;1.20;;
3099;SDS011;1560;52.746;13.474;2023-04-24T12:05:40;2.87;;;1.33;;
3099;SDS011;1560;52.746;13.474;2023-04-24T12:08:10;2.60;;;1.10;;
3099;SDS011;1560;52.746;13.474;2023-04-24T12:10:38;2.67;;;1.47;;
3099;SDS011;1560;52.746;13.474;2023-04-24T12:13:08;2.83;;;1.50;;
3099;SDS011;1560;52.746;13.474;2023-04-24T12:15:39;3.73;;;1.50;;
3099;SDS011;1560;52.746;13.474;2023-04-24T12:18:08;2.60;;;1.10;;
3099;SDS011;1560;52.746;13.474;2023-04-24T12:23:33;3.10;;;1.17;;
3099;SDS011;1560;52.746;13.474;2023-04-24T12:26:03;2.73;;;1.57;;
3099;SDS011;1560;52.746;13.474;2023-04-24T12:28:35;2.90;;;0.90;;
3099;SDS011;1560;52.746;13.474;2023-04-24T12:31:06;1.87;;;1.23;;
3099;SDS011;1560;52.746;13.474;2023-04-24T12:36:12;1.70;;;1.10;;
3099;SDS011;1560;52.746;13.474;2023-04-24T12:38:43;3.00;;;1.13;;
3099;SDS011;1560;52.746;13.474;2023-04-24T12:43:52;2.07;;;0.90;;
3099;SDS011;1560;52.746;13.474;2023-04-24T12:46:24;3.70;;;1.20;;
3099;SDS011;1560;52.746;13.474;2023-04-24T12:48:53;1.50;;;0.90;;
3099;SDS011;1560;52.746;13.474;2023-04-24T12:51:21;1.93;;;1.50;;
3099;SDS011;1560;52.746;13.474;2023-04-24T12:53:51;2.13;;;1.40;;
3099;SDS011;1560;52.746;13.474;2023-04-24T12:56:20;8.17;;;1.47;;
3099;SDS011;1560;52.746;13.474;2023-04-24T12:58:48;2.97;;;1.70;;
3099;SDS011;1560;52.746;13.474;2023-04-24T13:01:18;1.90;;;1.43;;
3099;SDS011;1560;52.746;13.474;2023-04-24T13:03:46;3.10;;;1.63;;
3099;SDS011;1560;52.746;13.474;2023-04-24T13:08:53;1.70;;;1.30;;
3099;SDS011;1560;52.746;13.474;2023-04-24T13:11:23;2.10;;;1.77;;
3099;SDS011;1560;52.746;13.474;2023-04-24T13:13:52;6.27;;;2.20;;
3099;SDS011;1560;52.746;13.474;2023-04-24T13:16:21;6.90;;;2.50;;
3099;SDS011;1560;52.746;13.474;2023-04-24T13:18:50;3.13;;;1.70;;
3099;SDS011;1560;52.746;13.474;2023-04-24T13:21:20;4.07;;;1.70;;
3099;SDS011;1560;52.746;13.474;2023-04-24T13:23:48;7.30;;;2.00;;
3099;SDS011;1560;52.746;13.474;2023-04-24T13:26:18;3.33;;;1.90;;
3099;SDS011;1560;52.746;13.474;2023-04-24T13:28:46;7.60;;;2.10;;
3099;SDS011;1560;52.746;13.474;2023-04-24T13:31:15;5.53;;;1.77;;
3099;SDS011;1560;52.746;13.474;2023-04-24T13:33:44;3.50;;;2.53;;
3099;SDS011;1560;52.746;13.474;2023-04-24T13:36:12;3.07;;;1.57;;
3099;SDS011;1560;52.746;13.474;2023-04-24T13:38:43;3.23;;;1.13;;
3099;SDS011;1560;52.746;13.474;2023-04-24T13:41:12;2.97;;;1.67;;
3099;SDS011;1560;52.746;13.474;2023-04-24T13:43:41;3.07;;;1.60;;
3099;SDS011;1560;52.746;13.474;2023-04-24T13:46:09;3.20;;;1.90;;
3099;SDS011;1560;52.746;13.474;2023-04-24T13:48:38;5.10;;;1.97;;
3099;SDS011;1560;52.746;13.474;2023-04-24T13:51:06;5.23;;;2.40;;
3099;SDS011;1560;52.746;13.474;2023-04-24T13:53:36;2.47;;;2.00;;
3099;SDS011;1560;52.746;13.474;2023-04-24T13:56:05;2.50;;;2.00;;
3099;SDS011;1560;52.746;13.474;2023-04-24T13:58:34;4.00;;;2.40;;
3099;SDS011;1560;52.746;13.474;2023-04-24T14:01:03;2.10;;;1.50;;
3099;SDS011;1560;52.746;13.474;2023-04-24T14:03:33;3.80;;;2.40;;
3099;SDS011;1560;52.746;13.474;2023-04-24T14:06:03;3.10;;;1.80;;
3099;SDS011;1560;52.746;13.474;2023-04-24T14:11:10;1.80;;;1.40;;
3099;SDS011;1560;52.746;13.474;2023-04-24T14:13:39;2.77;;;1.50;;
3099;SDS011;1560;52.746;13.474;2023-04-24T14:16:09;1.80;;;1.30;;
3099;SDS011;1560;52.746;13.474;2023-04-24T14:18:38;4.90;;;2.00;;
3099;SDS011;1560;52.746;13.474;2023-04-24T14:21:07;2.47;;;1.77;;
3099;SDS011;1560;52.746;13.474;2023-04-24T14:23:36;3.30;;;1.43;;
3099;SDS011;1560;52.746;13.474;2023-04-24T14:26:04;3.37;;;2.30;;
3099;SDS011;1560;52.746;13.474;2023-04-24T14:28:33;3.87;;;1.97;;
3099;SDS011;1560;52.746;13.474;2023-04-24T14:31:02;4.13;;;1.43;;
3099;SDS011;1560;52.746;13.474;2023-04-24T14:33:31;3.27;;;1.60;;
3099;SDS011;1560;52.746;13.474;2023-04-24T14:35:59;2.10;;;1.73;;
3099;SDS011;1560;52.746;13.474;2023-04-24T14:41:09;2.10;;;1.70;;
3099;SDS011;1560;52.746;13.474;2023-04-24T14:43:38;2.23;;;1.80;;
3099;SDS011;1560;52.746;13.474;2023-04-24T14:46:06;2.73;;;1.73;;
3099;SDS011;1560;52.746;13.474;2023-04-24T14:48:35;2.90;;;1.50;;
3099;SDS011;1560;52.746;13.474;2023-04-24T14:51:04;2.27;;;1.43;;
3099;SDS011;1560;52.746;13.474;2023-04-24T14:56:11;2.23;;;1.50;;
3099;SDS011;1560;52.746;13.474;2023-04-24T14:58:40;2.30;;;1.63;;
3099;SDS011;1560;52.746;13.474;2023-04-24T15:01:19;2.67;;;2.00;;
3099;SDS011;1560;52.746;13.474;2023-04-24T15:03:48;2.67;;;1.20;;
3099;SDS011;1560;52.746;13.474;2023-04-24T15:08:59;2.00;;;1.37;;
3099;SDS011;1560;52.746;13.474;2023-04-24T15:11:27;6.20;;;1.50;;
3099;SDS011;1560;52.746;13.474;2023-04-24T15:13:56;2.17;;;1.30;;
3099;SDS011;1560;52.746;13.474;2023-04-24T15:16:25;2.47;;;1.40;;
3099;SDS011;1560;52.746;13.474;2023-04-24T15:18:54;2.00;;;1.30;;
3099;SDS011;1560;52.746;13.474;2023-04-24T15:24:01;2.10;;;1.50;;
3099;SDS011;1560;52.746;13.474;2023-04-24T15:29:09;3.67;;;1.83;;
3099;SDS011;1560;52.746;13.474;2023-04-24T15:31:37;2.40;;;1.77;;
3099;SDS011;1560;52.746;13.474;2023-04-24T15:34:06;3.20;;;1.97;;
3099;SDS011;1560;52.746;13.474;2023-04-24T15:36:35;3.57;;;1.77;;
3099;SDS011;1560;52.746;13.474;2023-04-24T15:39:04;2.47;;;1.77;;
3099;SDS011;1560;52.746;13.474;2023-04-24T15:41:33;2.53;;;1.70;;
3099;SDS011;1560;52.746;13.474;2023-04-24T15:44:01;2.33;;;1.80;;
3099;SDS011;1560;52.746;13.474;2023-04-24T15:46:30;2.93;;;2.00;;
3099;SDS011;1560;52.746;13.474;2023-04-24T15:49:00;2.00;;;1.70;;
3099;SDS011;1560;52.746;13.474;2023-04-24T15:51:29;2.73;;;1.93;;
3099;SDS011;1560;52.746;13.474;2023-04-24T15:54:08;2.80;;;1.47;;
3099;SDS011;1560;52.746;13.474;2023-04-24T15:59:14;2.60;;;1.70;;
3099;SDS011;1560;52.746;13.474;2023-04-24T16:01:43;2.33;;;1.57;;
3099;SDS011;1560;52.746;13.474;2023-04-24T16:07:28;3.90;;;2.00;;
3099;SDS011;1560;52.746;13.474;2023-04-24T16:09:57;2.60;;;1.90;;
3099;SDS011;1560;52.746;13.474;2023-04-24T16:12:26;2.57;;;2.00;;
3099;SDS011;1560;52.746;13.474;2023-04-24T16:15:06;2.17;;;1.80;;
3099;SDS011;1560;52.746;13.474;2023-04-24T16:17:35;2.23;;;1.57;;
3099;SDS011;1560;52.746;13.474;2023-04-24T16:20:04;2.20;;;1.50;;
3099;SDS011;1560;52.746;13.474;2023-04-24T16:22:34;3.80;;;2.30;;
3099;SDS011;1560;52.746;13.474;2023-04-24T16:25:05;3.60;;;1.97;;
3099;SDS011;1560;52.746;13.474;2023-04-24T16:27:36;3.83;;;1.70;;
3099;SDS011;1560;52.746;13.474;2023-04-24T16:30:06;2.10;;;1.60;;
3099;SDS011;1560;52.746;13.474;2023-04-24T16:32:35;3.50;;;1.47;;
3099;SDS011;1560;52.746;13.474;2023-04-24T16:35:05;3.13;;;1.77;;
3099;SDS011;1560;52.746;13.474;2023-04-24T16:37:34;2.30;;;1.47;;
3099;SDS011;1560;52.746;13.474;2023-04-24T16:40:03;3.00;;;1.50;;
3099;SDS011;1560;52.746;13.474;2023-04-24T16:42:36;2.37;;;1.67;;
3099;SDS011;1560;52.746;13.474;2023-04-24T16:45:06;2.30;;;1.60;;
3099;SDS011;1560;52.746;13.474;2023-04-24T16:47:36;2.10;;;1.30;;
3099;SDS011;1560;52.746;13.474;2023-04-24T16:50:05;2.93;;;1.60;;
3099;SDS011;1560;52.746;13.474;2023-04-24T16:52:35;2.23;;;1.90;;
3099;SDS011;1560;52.746;13.474;2023-04-24T16:55:04;3.00;;;2.10;;
3099;SDS011;1560;52.746;13.474;2023-04-24T16:57:35;2.67;;;1.53;;
3099;SDS011;1560;52.746;13.474;2023-04-24T17:00:05;3.00;;;1.73;;
3099;SDS011;1560;52.746;13.474;2023-04-24T17:02:38;3.60;;;1.87;;
3099;SDS011;1560;52.746;13.474;2023-04-24T17:05:07;2.40;;;1.37;;
3099;SDS011;1560;52.746;13.474;2023-04-24T17:07:36;1.90;;;1.50;;
3099;SDS011;1560;52.746;13.474;2023-04-24T17:10:06;1.93;;;1.40;;
3099;SDS011;1560;52.746;13.474;2023-04-24T17:12:35;2.87;;;1.80;;
3099;SDS011;1560;52.746;13.474;2023-04-24T17:15:05;2.00;;;1.40;;
3099;SDS011;1560;52.746;13.474;2023-04-24T17:17:34;2.83;;;1.60;;
3099;SDS011;1560;52.746;13.474;2023-04-24T17:20:04;3.17;;;1.80;;
3099;SDS011;1560;52.746;13.474;2023-04-24T17:22:34;2.67;;;1.80;;
3099;SDS011;1560;52.746;13.474;2023-04-24T17:25:03;1.90;;;1.30;;